Time;durP1;ratioP1;P1;durP2;ratioP2;P2;SDS_P1;SDS_P2;PMS_P1;PMS_P2;Temp;Humidity;BMP_temperature;BMP_pressure;BME280_temperature;BME280_humidity;BME280_pressure;Samples;Min_cycle;Max_cycle;Signal;HPM_P1;HPM_P2
2022/07/20 00:00:54;;;;;;;;;;;;;;;;;;5056905;28;1256;-73
2022/07/20 00:03:21;;;;;;;;;;;;;;;;;;5056578;28;1360;-73
2022/07/20 00:05:47;;;;;;;;;;;;;;;;;;5056406;28;1183;-73
2022/07/20 00:11:19;;;;;;;;;;;;;;;;;;5055803;28;1116;-73
2022/07/20 00:13:46;;;;;;;;;;;;;;;;;;5055944;28;1418;-73
2022/07/20 00:16:12;;;;;;;;;;;;;;;;;;5055706;28;1175;-73
2022/07/20 00:18:38;;;;;;;;;;;;;;;;;;5058030;22;3524;-76
2022/07/20 00:21:05;;;;;;;;;;;;;;;;;;4967415;28;1079;-76
2022/07/20 00:23:33;;;;;;;;;;;;;;;;;;4969835;28;1059;-76
2022/07/20 00:25:59;;;;;;;;;;;;;;;;;;4970080;28;1047;-76
2022/07/20 00:28:25;;;;;;;;;;;;;;;;;;4963349;28;1342;-76
2022/07/20 00:30:51;;;;;;;;;;;;;;;;;;4950666;29;1123;-76
2022/07/20 00:33:17;;;;;;;;;;;;;;;;;;4950400;28;882;-76
2022/07/20 00:35:43;;;;;;;;;;;;;;;;;;4950693;28;1119;-76
2022/07/20 00:38:10;;;;;;;;;;;;;;;;;;4949615;28;1919;-75
2022/07/20 00:40:37;;;;;;;;;;;;;;;;;;4950097;28;1521;-75
2022/07/20 00:43:03;;;;;;;;;;;;;;;;;;4949972;29;1734;-75
2022/07/20 00:45:29;;;;;;;;;;;;;;;;;;4950210;29;1124;-75
2022/07/20 00:47:56;;;;;;;;;;;;;;;;;;4949298;28;1376;-75
2022/07/20 00:50:22;;;;;;;;;;;;;;;;;;5015960;28;1339;-75
2022/07/20 00:52:48;;;;;;;;;;;;;;;;;;4950058;29;1107;-76
2022/07/20 00:55:14;;;;;;;;;;;;;;;;;;5016451;28;1296;-75
2022/07/20 00:57:42;;;;;;;;;;;;;;;;;;4949349;29;1974;-76
2022/07/20 01:00:09;;;;;;;;;;;;;;;;;;5019021;28;1157;-75
2022/07/20 01:02:35;;;;;;;;;;;;;;;;;;5022096;28;1017;-75
2022/07/20 01:05:01;;;;;;;;;;;;;;;;;;4954104;29;990;-75
2022/07/20 01:07:27;;;;;;;;;;;;;;;;;;4952734;29;1140;-75
2022/07/20 01:09:54;;;;;;;;;;;;;;;;;;4953142;28;1317;-75
2022/07/20 01:12:20;;;;;;;;;;;;;;;;;;4953417;29;1566;-75
2022/07/20 01:14:53;;;;;;;;;;;;;;;;;;5019581;28;1176;-75
2022/07/20 01:17:19;;;;;;;;;;;;;;;;;;4952459;29;1980;-75
2022/07/20 01:19:47;;;;;;;;;;;;;;;;;;4953300;28;1333;-75
2022/07/20 01:22:14;;;;;;;;;;;;;;;;;;4953181;29;1091;-75
2022/07/20 01:24:40;;;;;;;;;;;;;;;;;;4953637;29;940;-75
2022/07/20 01:27:06;;;;;;;;;;;;;;;;;;4955801;29;1107;-75
2022/07/20 01:29:33;;;;;;;;;;;;;;;;;;4956043;28;1306;-75
2022/07/20 01:31:59;;;;;;;;;;;;;;;;;;4956137;29;933;-74
2022/07/20 01:34:25;;;;;;;;;;;;;;;;;;4953449;29;1064;-75
2022/07/20 01:36:51;;;;;;;;;;;;;;;;;;4952638;29;1914;-75
2022/07/20 01:39:19;;;;;;;;;;;;;;;;;;4952752;28;1423;-75
2022/07/20 01:41:52;;;;;;;;;;;;;;;;;;4952839;29;744;-75
2022/07/20 01:44:21;;;;;;;;;;;;;;;;;;4952894;29;982;-75
2022/07/20 01:46:47;;;;;;;;;;;;;;;;;;4952154;29;1092;-75
2022/07/20 01:49:13;;;;;;;;;;;;;;;;;;4952561;28;1286;-75
2022/07/20 01:51:40;;;;;;;;;;;;;;;;;;4952985;28;1060;-75
2022/07/20 01:54:06;;;;;;;;;;;;;;;;;;4952689;29;760;-75
2022/07/20 01:56:33;;;;;;;;;;;;;;;;;;4952190;29;708;-75
2022/07/20 01:58:59;;;;;;;;;;;;;;;;;;5018829;28;1981;-77
2022/07/20 02:01:26;;;;;;;;;;;;;;;;;;4952378;29;913;-77
2022/07/20 02:03:52;;;;;;;;;;;;;;;;;;4951806;29;1604;-77
2022/07/20 02:06:18;;;;;;;;;;;;;;;;;;4951462;29;1129;-77
2022/07/20 02:08:44;;;;;;;;;;;;;;;;;;4952291;28;1439;-77
2022/07/20 02:11:10;;;;;;;;;;;;;;;;;;4951608;28;1066;-76
2022/07/20 02:13:38;;;;;;;;;;;;;;;;;;4951844;28;1080;-74
2022/07/20 02:16:16;;;;;;;;;;;;;;;;;;4952123;28;1127;-75
2022/07/20 02:18:42;;;;;;;;;;;;;;;;;;4952065;28;1910;-77
2022/07/20 02:21:08;;;;;;;;;;;;;;;;;;4950944;29;1268;-76
2022/07/20 02:23:35;;;;;;;;;;;;;;;;;;4952209;28;1060;-77
2022/07/20 02:26:01;;;;;;;;;;;;;;;;;;4952082;28;1052;-77
2022/07/20 02:28:27;;;;;;;;;;;;;;;;;;4951307;28;1318;-74
2022/07/20 02:30:54;;;;;;;;;;;;;;;;;;4952132;28;1060;-77
2022/07/20 02:33:21;;;;;;;;;;;;;;;;;;4952055;29;1080;-77
2022/07/20 02:35:47;;;;;;;;;;;;;;;;;;4952145;29;1100;-76
2022/07/20 02:38:13;;;;;;;;;;;;;;;;;;4951014;28;1918;-76
2022/07/20 02:40:39;;;;;;;;;;;;;;;;;;4952066;28;683;-76
2022/07/20 02:43:05;;;;;;;;;;;;;;;;;;4951306;28;1511;-76
2022/07/20 02:45:32;;;;;;;;;;;;;;;;;;4951802;28;1496;-76
2022/07/20 02:48:02;;;;;;;;;;;;;;;;;;5016904;28;1417;-76
2022/07/20 02:50:29;;;;;;;;;;;;;;;;;;4951676;29;1080;-76
2022/07/20 02:52:55;;;;;;;;;;;;;;;;;;4951726;29;764;-77
2022/07/20 02:55:21;;;;;;;;;;;;;;;;;;4951573;29;1043;-76
2022/07/20 02:57:47;;;;;;;;;;;;;;;;;;4950818;28;1914;-76
2022/07/20 03:00:14;;;;;;;;;;;;;;;;;;4951703;29;1104;-76
2022/07/20 03:02:40;;;;;;;;;;;;;;;;;;4951554;29;1072;-76
2022/07/20 03:05:08;;;;;;;;;;;;;;;;;;4951387;29;942;-76
2022/07/20 03:07:34;;;;;;;;;;;;;;;;;;4950903;29;1407;-77
2022/07/20 03:10:00;;;;;;;;;;;;;;;;;;4951608;28;1407;-77
2022/07/20 03:12:26;;;;;;;;;;;;;;;;;;4951568;29;1016;-76
2022/07/20 03:14:52;;;;;;;;;;;;;;;;;;4951397;29;1092;-77
2022/07/20 03:17:19;;;;;;;;;;;;;;;;;;5016524;28;1979;-77
2022/07/20 03:19:45;;;;;;;;;;;;;;;;;;4951266;28;1286;-76
2022/07/20 03:22:13;;;;;;;;;;;;;;;;;;4951428;29;700;-76
2022/07/20 03:24:39;;;;;;;;;;;;;;;;;;4950821;29;890;-76
2022/07/20 03:27:05;;;;;;;;;;;;;;;;;;4950468;29;1154;-76
2022/07/20 03:29:31;;;;;;;;;;;;;;;;;;4951177;28;1317;-76
2022/07/20 03:31:58;;;;;;;;;;;;;;;;;;4950982;29;1068;-77
2022/07/20 03:34:24;;;;;;;;;;;;;;;;;;5017155;28;1194;-76
2022/07/20 03:36:50;;;;;;;;;;;;;;;;;;4950466;29;945;-76
2022/07/20 03:39:17;;;;;;;;;;;;;;;;;;4950847;28;1906;-77
2022/07/20 03:41:44;;;;;;;;;;;;;;;;;;4950811;29;874;-76
2022/07/20 03:44:10;;;;;;;;;;;;;;;;;;4950653;29;1116;-76
2022/07/20 03:46:36;;;;;;;;;;;;;;;;;;4950303;29;790;-76
2022/07/20 03:49:02;;;;;;;;;;;;;;;;;;4947915;28;1436;-76
2022/07/20 03:51:28;;;;;;;;;;;;;;;;;;5016534;28;1700;-75
2022/07/20 03:53:55;;;;;;;;;;;;;;;;;;4950909;28;913;-76
2022/07/20 03:56:22;;;;;;;;;;;;;;;;;;4950233;28;1123;-76
2022/07/20 03:58:48;;;;;;;;;;;;;;;;;;4950607;28;1914;-76
2022/07/20 04:01:14;;;;;;;;;;;;;;;;;;4950719;28;972;-76
2022/07/20 04:03:41;;;;;;;;;;;;;;;;;;4941353;29;1437;-76
2022/07/20 04:06:07;;;;;;;;;;;;;;;;;;4949189;29;1214;-75
2022/07/20 04:08:33;;;;;;;;;;;;;;;;;;4950637;28;1281;-76
2022/07/20 04:10:59;;;;;;;;;;;;;;;;;;4948711;29;1402;-76
2022/07/20 04:13:27;;;;;;;;;;;;;;;;;;4942499;29;1492;-76
2022/07/20 04:15:53;;;;;;;;;;;;;;;;;;4945443;28;2035;-75
2022/07/20 04:18:19;;;;;;;;;;;;;;;;;;4947619;28;1990;-75
2022/07/20 04:20:46;;;;;;;;;;;;;;;;;;4950494;29;1146;-76
2022/07/20 04:23:12;;;;;;;;;;;;;;;;;;4941496;29;2038;-75
2022/07/20 04:25:38;;;;;;;;;;;;;;;;;;4949673;28;1335;-75
2022/07/20 04:28:05;;;;;;;;;;;;;;;;;;4943819;28;1443;-75
2022/07/20 04:30:35;;;;;;;;;;;;;;;;;;5010543;28;1405;-75
2022/07/20 04:33:01;;;;;;;;;;;;;;;;;;4950452;28;1064;-75
2022/07/20 04:35:27;;;;;;;;;;;;;;;;;;4949670;28;1396;-76
2022/07/20 04:37:54;;;;;;;;;;;;;;;;;;4954854;28;1969;-76
2022/07/20 04:40:20;;;;;;;;;;;;;;;;;;4952725;28;1399;-77
2022/07/20 04:42:47;;;;;;;;;;;;;;;;;;4941426;29;1399;-75
2022/07/20 04:45:13;;;;;;;;;;;;;;;;;;4947255;29;1473;-75
2022/07/20 04:47:40;;;;;;;;;;;;;;;;;;4955263;28;1473;-75
2022/07/20 04:50:08;;;;;;;;;;;;;;;;;;4957520;28;1334;-75
2022/07/20 04:52:34;;;;;;;;;;;;;;;;;;4953590;29;1410;-75
2022/07/20 04:55:00;;;;;;;;;;;;;;;;;;4950212;29;1352;-75
2022/07/20 04:57:26;;;;;;;;;;;;;;;;;;4959179;28;1155;-75
2022/07/20 04:59:52;;;;;;;;;;;;;;;;;;4954304;28;1980;-75
2022/07/20 05:02:18;;;;;;;;;;;;;;;;;;4953464;28;944;-75
2022/07/20 05:04:47;;;;;;;;;;;;;;;;;;4953535;28;1225;-75
2022/07/20 05:07:13;;;;;;;;;;;;;;;;;;4952774;28;882;-75
2022/07/20 05:09:39;;;;;;;;;;;;;;;;;;4953287;28;1307;-76
2022/07/20 05:12:05;;;;;;;;;;;;;;;;;;4953172;29;755;-76
2022/07/20 05:14:31;;;;;;;;;;;;;;;;;;4953102;29;1107;-76
2022/07/20 05:16:58;;;;;;;;;;;;;;;;;;4950984;29;1463;-76
2022/07/20 05:19:24;;;;;;;;;;;;;;;;;;4944710;28;1978;-76
2022/07/20 05:21:51;;;;;;;;;;;;;;;;;;5018840;28;1396;-76
2022/07/20 05:24:17;;;;;;;;;;;;;;;;;;4943064;29;1451;-76
2022/07/20 05:26:44;;;;;;;;;;;;;;;;;;4947525;28;1416;-77
2022/07/20 05:29:10;;;;;;;;;;;;;;;;;;4952507;28;1393;-75
2022/07/20 05:31:36;;;;;;;;;;;;;;;;;;4951739;28;1582;-77
2022/07/20 05:34:03;;;;;;;;;;;;;;;;;;4952629;29;1241;-76
2022/07/20 05:36:29;;;;;;;;;;;;;;;;;;4952233;28;770;-76
2022/07/20 05:38:56;;;;;;;;;;;;;;;;;;4952485;28;1911;-76
2022/07/20 05:44:01;;;;;;;;;;;;;;;;;;5016822;28;2571;-75
2022/07/20 05:46:28;;;;;;;;;;;;;;;;;;5025106;28;1463;-74
2022/07/20 05:48:54;;;;;;;;;;;;;;;;;;5015077;28;1565;-74
2022/07/20 05:51:20;;;;;;;;;;;;;;;;;;5024364;28;1273;-74
2022/07/20 05:53:46;;;;;;;;;;;;;;;;;;5039798;28;1397;-74
2022/07/20 05:56:14;;;;;;;;;;;;;;;;;;5052227;28;1362;-74
2022/07/20 05:58:40;;;;;;;;;;;;;;;;;;5038173;28;1979;-73
2022/07/20 06:01:06;;;;;;;;;;;;;;;;;;5043358;28;1213;-74
2022/07/20 06:03:32;;;;;;;;;;;;;;;;;;5037601;28;1424;-75
2022/07/20 06:05:58;;;;;;;;;;;;;;;;;;5043429;28;1275;-73
2022/07/20 06:08:24;;;;;;;;;;;;;;;;;;5039812;28;1465;-73
2022/07/20 06:10:51;;;;;;;;;;;;;;;;;;5042517;28;1466;-72
2022/07/20 06:13:18;;;;;;;;;;;;;;;;;;5050350;28;1597;-73
2022/07/20 06:15:44;;;;;;;;;;;;;;;;;;5029880;28;1677;-72
2022/07/20 06:18:10;;;;;;;;;;;;;;;;;;5034307;28;1545;-72
2022/07/20 06:20:37;;;;;;;;;;;;;;;;;;5043891;28;1960;-72
2022/07/20 06:23:03;;;;;;;;;;;;;;;;;;5040349;28;1424;-71
2022/07/20 06:25:29;;;;;;;;;;;;;;;;;;5035810;28;1339;-72
2022/07/20 06:27:58;;;;;;;;;;;;;;;;;;5041832;28;1803;-73
2022/07/20 06:30:26;;;;;;;;;;;;;;;;;;5032039;28;1360;-73
2022/07/20 06:32:52;;;;;;;;;;;;;;;;;;5056848;28;1428;-72
2022/07/20 06:35:18;;;;;;;;;;;;;;;;;;5044758;28;1519;-72
2022/07/20 06:37:44;;;;;;;;;;;;;;;;;;5031444;28;1565;-73
2022/07/20 06:40:11;;;;;;;;;;;;;;;;;;5032543;28;1910;-73
2022/07/20 06:42:37;;;;;;;;;;;;;;;;;;5040687;28;1433;-72
2022/07/20 06:45:03;;;;;;;;;;;;;;;;;;5044078;28;1153;-72
2022/07/20 06:47:31;;;;;;;;;;;;;;;;;;5043426;28;1411;-72
2022/07/20 06:49:57;;;;;;;;;;;;;;;;;;5034073;28;1172;-72
2022/07/20 06:52:23;;;;;;;;;;;;;;;;;;5042403;28;1401;-71
2022/07/20 06:54:50;;;;;;;;;;;;;;;;;;5050195;28;1070;-72
2022/07/20 06:57:16;;;;;;;;;;;;;;;;;;5028132;28;1320;-72
2022/07/20 06:59:42;;;;;;;;;;;;;;;;;;5039716;28;1918;-72
2022/07/20 07:02:08;;;;;;;;;;;;;;;;;;5041393;28;1391;-72
2022/07/20 07:04:36;;;;;;;;;;;;;;;;;;5043256;28;1141;-72
2022/07/20 07:07:02;;;;;;;;;;;;;;;;;;5032755;28;1470;-71
2022/07/20 07:09:29;;;;;;;;;;;;;;;;;;5029672;28;1505;-72
2022/07/20 07:11:55;;;;;;;;;;;;;;;;;;5032821;28;1501;-72
2022/07/20 07:14:21;;;;;;;;;;;;;;;;;;5029174;28;1659;-72
2022/07/20 07:16:47;;;;;;;;;;;;;;;;;;5039304;28;1381;-72
2022/07/20 07:19:13;;;;;;;;;;;;;;;;;;5033525;28;2016;-73
2022/07/20 07:21:41;;;;;;;;;;;;;;;;;;5040697;28;1597;-72
2022/07/20 07:24:07;;;;;;;;;;;;;;;;;;5036977;28;1526;-73
2022/07/20 07:26:33;;;;;;;;;;;;;;;;;;5036081;28;1744;-74
2022/07/20 07:29:00;;;;;;;;;;;;;;;;;;5035515;28;1879;-74
2022/07/20 07:31:26;;;;;;;;;;;;;;;;;;5047917;28;1928;-74
2022/07/20 07:33:52;;;;;;;;;;;;;;;;;;5034549;28;1478;-73
2022/07/20 07:36:18;;;;;;;;;;;;;;;;;;5039315;28;1865;-73
2022/07/20 07:38:46;;;;;;;;;;;;;;;;;;5046051;28;1906;-73
2022/07/20 07:41:12;;;;;;;;;;;;;;;;;;5051208;28;1054;-73
2022/07/20 07:43:38;;;;;;;;;;;;;;;;;;5050588;28;1325;-73
2022/07/20 07:46:05;;;;;;;;;;;;;;;;;;5013361;28;1810;-74
2022/07/20 07:48:31;;;;;;;;;;;;;;;;;;5003880;28;1520;-74
2022/07/20 07:50:57;;;;;;;;;;;;;;;;;;5007963;28;1163;-74
2022/07/20 07:53:23;;;;;;;;;;;;;;;;;;5010643;28;1286;-74
2022/07/20 07:55:51;;;;;;;;;;;;;;;;;;5009481;28;1770;-74
2022/07/20 07:58:17;;;;;;;;;;;;;;;;;;5007416;28;1599;-74
2022/07/20 08:00:44;;;;;;;;;;;;;;;;;;5002851;28;1971;-73
2022/07/20 08:03:10;;;;;;;;;;;;;;;;;;4993109;28;1416;-74
2022/07/20 08:05:36;;;;;;;;;;;;;;;;;;5011051;28;813;-74
2022/07/20 08:08:06;;;;;;;;;;;;;;;;;;5001662;28;1884;-73
2022/07/20 08:10:32;;;;;;;;;;;;;;;;;;5012807;28;1397;-74
2022/07/20 08:13:00;;;;;;;;;;;;;;;;;;5010525;28;1333;-74
2022/07/20 08:15:26;;;;;;;;;;;;;;;;;;5008680;28;1785;-74
2022/07/20 08:17:52;;;;;;;;;;;;;;;;;;5003566;28;1765;-73
2022/07/20 08:20:21;;;;;;;;;;;;;;;;;;5002848;28;1922;-75
2022/07/20 08:22:47;;;;;;;;;;;;;;;;;;5011017;28;1777;-75
2022/07/20 08:25:14;;;;;;;;;;;;;;;;;;5005438;28;1254;-76
2022/07/20 08:27:40;;;;;;;;;;;;;;;;;;5010391;28;898;-75
2022/07/20 08:30:08;;;;;;;;;;;;;;;;;;5016821;28;1819;-75
2022/07/20 08:32:34;;;;;;;;;;;;;;;;;;5013162;28;1832;-75
2022/07/20 08:35:00;;;;;;;;;;;;;;;;;;5010856;28;1155;-75
2022/07/20 08:37:27;;;;;;;;;;;;;;;;;;5010015;28;1147;-74
2022/07/20 08:39:53;;;;;;;;;;;;;;;;;;5010724;28;1984;-74
2022/07/20 08:42:19;;;;;;;;;;;;;;;;;;5011998;28;1821;-75
2022/07/20 08:44:46;;;;;;;;;;;;;;;;;;5009939;28;1488;-75
2022/07/20 08:47:13;;;;;;;;;;;;;;;;;;5012611;28;1864;-75
2022/07/20 08:49:40;;;;;;;;;;;;;;;;;;5010555;28;1147;-74
2022/07/20 08:52:07;;;;;;;;;;;;;;;;;;5015428;28;1930;-74
2022/07/20 08:54:33;;;;;;;;;;;;;;;;;;5010198;28;1432;-74
2022/07/20 08:56:59;;;;;;;;;;;;;;;;;;5010096;28;1245;-74
2022/07/20 08:59:25;;;;;;;;;;;;;;;;;;5013771;28;1922;-74
2022/07/20 09:01:58;;;;;;;;;;;;;;;;;;4991268;28;1606;-74
2022/07/20 09:04:25;;;;;;;;;;;;;;;;;;5004114;28;1452;-74
2022/07/20 09:06:51;;;;;;;;;;;;;;;;;;5001521;28;1778;-74
2022/07/20 09:09:18;;;;;;;;;;;;;;;;;;5009820;28;1155;-74
2022/07/20 09:11:45;;;;;;;;;;;;;;;;;;5002630;28;1758;-74
2022/07/20 09:14:11;;;;;;;;;;;;;;;;;;4998267;28;1798;-74
2022/07/20 09:16:42;;;;;;;;;;;;;;;;;;5003129;28;1826;-74
2022/07/20 09:19:09;;;;;;;;;;;;;;;;;;5006493;28;1790;-74
2022/07/20 09:21:36;;;;;;;;;;;;;;;;;;5008560;28;1973;-72
2022/07/20 09:24:03;;;;;;;;;;;;;;;;;;5013308;28;2075;-73
2022/07/20 09:26:29;;;;;;;;;;;;;;;;;;5005460;28;1445;-73
2022/07/20 09:28:57;;;;;;;;;;;;;;;;;;5007055;28;1626;-73
2022/07/20 09:31:25;;;;;;;;;;;;;;;;;;5028805;28;1240;-73
2022/07/20 09:33:53;;;;;;;;;;;;;;;;;;5013582;28;1318;-73
2022/07/20 09:36:19;;;;;;;;;;;;;;;;;;5012721;28;1097;-72
2022/07/20 09:38:47;;;;;;;;;;;;;;;;;;4995416;28;1836;-73
2022/07/20 09:41:23;;;;;;;;;;;;;;;;;;5002609;28;1934;-73
2022/07/20 09:43:50;;;;;;;;;;;;;;;;;;5013212;28;1306;-73
2022/07/20 09:46:17;;;;;;;;;;;;;;;;;;5013216;28;940;-75
2022/07/20 09:48:43;;;;;;;;;;;;;;;;;;5014012;28;1774;-74
2022/07/20 09:51:25;;;;;;;;;;;;;;;;;;5021335;28;1230;-75
2022/07/20 09:53:54;;;;;;;;;;;;;;;;;;4995458;28;1327;-75
2022/07/20 09:56:20;;;;;;;;;;;;;;;;;;5012881;28;1135;-75
2022/07/20 09:58:47;;;;;;;;;;;;;;;;;;5014721;28;1695;-75
2022/07/20 10:01:15;;;;;;;;;;;;;;;;;;5021011;28;1914;-75
2022/07/20 10:03:41;;;;;;;;;;;;;;;;;;5014536;28;1937;-74
2022/07/20 10:06:07;;;;;;;;;;;;;;;;;;5031163;28;1167;-75
2022/07/20 10:08:34;;;;;;;;;;;;;;;;;;5014878;28;967;-75
2022/07/20 10:11:01;;;;;;;;;;;;;;;;;;5004309;28;1685;-75
2022/07/20 10:13:29;;;;;;;;;;;;;;;;;;5024008;28;1415;-75
2022/07/20 10:15:57;;;;;;;;;;;;;;;;;;5032496;28;1071;-74
2022/07/20 10:18:23;;;;;;;;;;;;;;;;;;5013062;28;1506;-75
2022/07/20 10:20:50;;;;;;;;;;;;;;;;;;5012585;28;1962;-75
2022/07/20 10:23:27;;;;;;;;;;;;;;;;;;4994031;28;1827;-74
2022/07/20 10:25:53;;;;;;;;;;;;;;;;;;5022058;28;1476;-75
2022/07/20 10:28:32;;;;;;;;;;;;;;;;;;5015526;28;1720;-75
2022/07/20 10:30:58;;;;;;;;;;;;;;;;;;5010830;28;2004;-75
2022/07/20 10:33:25;;;;;;;;;;;;;;;;;;5022010;28;1350;-75
2022/07/20 10:35:51;;;;;;;;;;;;;;;;;;5032028;28;889;-75
2022/07/20 10:38:18;;;;;;;;;;;;;;;;;;5012793;28;1299;-74
2022/07/20 10:43:44;;;;;;;;;;;;;;;;;;4999986;28;1772;-76
2022/07/20 10:46:25;;;;;;;;;;;;;;;;;;5012154;28;1112;-76
2022/07/20 10:48:51;;;;;;;;;;;;;;;;;;5012601;28;1922;-75
2022/07/20 10:51:17;;;;;;;;;;;;;;;;;;5007408;28;1664;-75
2022/07/20 10:53:44;;;;;;;;;;;;;;;;;;5003730;28;1625;-75
2022/07/20 10:56:10;;;;;;;;;;;;;;;;;;5006443;28;1656;-75
2022/07/20 10:58:37;;;;;;;;;;;;;;;;;;4993999;28;1235;-75
2022/07/20 11:01:06;;;;;;;;;;;;;;;;;;5011598;28;1937;-75
2022/07/20 11:03:32;;;;;;;;;;;;;;;;;;5000609;28;1275;-75
2022/07/20 11:06:00;;;;;;;;;;;;;;;;;;4992302;28;1076;-75
2022/07/20 11:08:26;;;;;;;;;;;;;;;;;;4982162;28;1980;-76
2022/07/20 11:10:53;;;;;;;;;;;;;;;;;;5003749;28;1918;-75
2022/07/20 11:13:19;;;;;;;;;;;;;;;;;;5011396;28;1333;-75
2022/07/20 11:15:46;;;;;;;;;;;;;;;;;;5011651;28;782;-75
2022/07/20 11:18:14;;;;;;;;;;;;;;;;;;4993870;28;1260;-76
2022/07/20 11:20:45;;;;;;;;;;;;;;;;;;5011587;28;1976;-76
2022/07/20 11:23:13;;;;;;;;;;;;;;;;;;5004307;28;1878;-76
2022/07/20 11:25:45;;;;;;;;;;;;;;;;;;5010869;28;1751;-75
2022/07/20 11:28:12;;;;;;;;;;;;;;;;;;5016785;28;1650;-76
2022/07/20 11:30:38;;;;;;;;;;;;;;;;;;5011427;28;933;-76
2022/07/20 11:33:05;;;;;;;;;;;;;;;;;;5009406;28;1973;-74
2022/07/20 11:35:32;;;;;;;;;;;;;;;;;;5003677;28;1621;-75
2022/07/20 11:37:58;;;;;;;;;;;;;;;;;;5006805;28;1702;-74
2022/07/20 11:40:25;;;;;;;;;;;;;;;;;;5011189;28;1934;-75
2022/07/20 11:43:07;;;;;;;;;;;;;;;;;;5002810;28;1450;-75
2022/07/20 11:45:33;;;;;;;;;;;;;;;;;;5006340;28;1882;-75
2022/07/20 11:47:59;;;;;;;;;;;;;;;;;;5039668;28;1154;-77
2022/07/20 11:50:32;;;;;;;;;;;;;;;;;;5049268;28;1998;-75
2022/07/20 11:52:59;;;;;;;;;;;;;;;;;;5042979;28;1674;-75
2022/07/20 11:55:33;;;;;;;;;;;;;;;;;;5041816;28;1623;-75
2022/07/20 11:57:59;;;;;;;;;;;;;;;;;;5042182;22;3453;-78
2022/07/20 12:00:26;;;;;;;;;;;;;;;;;;5027842;28;1923;-77
2022/07/20 12:02:52;;;;;;;;;;;;;;;;;;5027894;28;2053;-79
2022/07/20 12:05:18;;;;;;;;;;;;;;;;;;5028873;28;1766;-80
2022/07/20 12:10:30;;;;;;;;;;;;;;;;;;5010798;28;1179;-81
2022/07/20 12:13:06;;;;;;;;;;;;;;;;;;5003584;28;1994;-79
2022/07/20 12:15:32;;;;;;;;;;;;;;;;;;5006465;28;1167;-78
2022/07/20 12:17:58;;;;;;;;;;;;;;;;;;5012024;28;1289;-78
2022/07/20 12:20:25;;;;;;;;;;;;;;;;;;5012873;28;1922;-78
2022/07/20 12:22:54;;;;;;;;;;;;;;;;;;5014281;28;1008;-78
2022/07/20 12:25:20;;;;;;;;;;;;;;;;;;5014289;28;1068;-78
2022/07/20 12:27:47;;;;;;;;;;;;;;;;;;5012975;28;1322;-79
2022/07/20 12:30:23;;;;;;;;;;;;;;;;;;5013517;28;937;-79
2022/07/20 12:33:01;;;;;;;;;;;;;;;;;;5012956;28;1111;-79
2022/07/20 12:35:27;;;;;;;;;;;;;;;;;;5012945;28;1063;-78
2022/07/20 12:37:56;;;;;;;;;;;;;;;;;;5012526;28;1488;-78
2022/07/20 12:40:46;;;;;;;;;;;;;;;;;;5013600;28;1912;-79
2022/07/20 12:43:28;;;;;;;;;;;;;;;;;;4998603;28;1131;-79
2022/07/20 12:45:54;;;;;;;;;;;;;;;;;;5013678;28;1020;-80
2022/07/20 12:48:20;;;;;;;;;;;;;;;;;;5011946;28;1383;-78
2022/07/20 12:50:46;;;;;;;;;;;;;;;;;;5011283;28;1052;-78
2022/07/20 12:53:14;;;;;;;;;;;;;;;;;;5011265;28;949;-78
2022/07/20 12:55:40;;;;;;;;;;;;;;;;;;5011838;28;656;-78
2022/07/20 12:58:06;;;;;;;;;;;;;;;;;;5015301;28;1335;-78
2022/07/20 13:00:32;;;;;;;;;;;;;;;;;;5015766;28;1970;-79
2022/07/20 13:02:59;;;;;;;;;;;;;;;;;;5015074;28;1060;-79
2022/07/20 13:05:25;;;;;;;;;;;;;;;;;;5015000;28;944;-78
2022/07/20 13:07:51;;;;;;;;;;;;;;;;;;5009346;28;1310;-79
2022/07/20 13:10:18;;;;;;;;;;;;;;;;;;5007750;28;1200;-78
2022/07/20 13:12:45;;;;;;;;;;;;;;;;;;5016592;28;1130;-79
2022/07/20 13:15:11;;;;;;;;;;;;;;;;;;5015784;28;1075;-79
2022/07/20 13:17:37;;;;;;;;;;;;;;;;;;5015011;28;1334;-78
2022/07/20 13:20:05;;;;;;;;;;;;;;;;;;5015838;28;1241;-79
2022/07/20 13:22:31;;;;;;;;;;;;;;;;;;5015712;28;1910;-79
2022/07/20 13:24:58;;;;;;;;;;;;;;;;;;5013325;28;1385;-78
2022/07/20 13:27:25;;;;;;;;;;;;;;;;;;5002409;28;1493;-78
2022/07/20 13:29:51;;;;;;;;;;;;;;;;;;5015013;28;1460;-77
2022/07/20 13:32:18;;;;;;;;;;;;;;;;;;5014230;28;1352;-77
2022/07/20 13:34:44;;;;;;;;;;;;;;;;;;5016899;28;1508;-78
2022/07/20 13:37:10;;;;;;;;;;;;;;;;;;5005282;28;1494;-77
2022/07/20 13:39:36;;;;;;;;;;;;;;;;;;5001838;28;1115;-78
2022/07/20 13:42:03;;;;;;;;;;;;;;;;;;5001416;28;1983;-78
2022/07/20 13:44:30;;;;;;;;;;;;;;;;;;5004970;28;1149;-79
2022/07/20 13:49:52;;;;;;;;;;;;;;;;;;5066942;28;1443;-78
2022/07/20 13:55:10;;;;;;;;;;;;;;;;;;5058097;28;1389;-79
2022/07/20 13:57:41;;;;;;;;;;;;;;;;;;5072438;28;1316;-79
2022/07/20 14:00:11;;;;;;;;;;;;;;;;;;5065644;28;1466;-78
2022/07/20 14:02:41;;;;;;;;;;;;;;;;;;5057694;28;999;-78
2022/07/20 14:05:08;;;;;;;;;;;;;;;;;;5052008;28;1352;-78
2022/07/20 14:07:34;;;;;;;;;;;;;;;;;;5059684;28;1447;-79
2022/07/20 14:10:00;;;;;;;;;;;;;;;;;;5055508;28;1454;-79
2022/07/20 14:12:26;;;;;;;;;;;;;;;;;;5061735;28;1914;-78
2022/07/20 14:14:52;;;;;;;;;;;;;;;;;;5067970;28;1164;-79
2022/07/20 14:17:20;;;;;;;;;;;;;;;;;;5066030;28;1545;-78
2022/07/20 14:19:46;;;;;;;;;;;;;;;;;;5064853;28;1208;-79
2022/07/20 14:22:12;;;;;;;;;;;;;;;;;;5050856;28;1430;-78
2022/07/20 14:24:38;;;;;;;;;;;;;;;;;;5054300;28;1557;-78
2022/07/20 14:27:06;;;;;;;;;;;;;;;;;;5052396;28;1562;-78
2022/07/20 14:29:32;;;;;;;;;;;;;;;;;;5057138;28;1565;-79
2022/07/20 14:31:58;;;;;;;;;;;;;;;;;;5071724;28;1910;-78
2022/07/20 14:34:26;;;;;;;;;;;;;;;;;;5071587;28;1027;-78
2022/07/20 14:36:52;;;;;;;;;;;;;;;;;;5062882;28;1738;-78
2022/07/20 14:39:18;;;;;;;;;;;;;;;;;;5057916;28;1532;-78
2022/07/20 14:41:45;;;;;;;;;;;;;;;;;;5056425;28;1481;-79
2022/07/20 14:44:11;;;;;;;;;;;;;;;;;;5058139;28;1258;-78
2022/07/20 14:46:37;;;;;;;;;;;;;;;;;;5050424;28;1860;-79
2022/07/20 14:49:03;;;;;;;;;;;;;;;;;;5047198;28;1534;-78
2022/07/20 14:51:31;;;;;;;;;;;;;;;;;;5001418;28;1918;-78
2022/07/20 14:53:57;;;;;;;;;;;;;;;;;;5028899;28;1119;-78
2022/07/20 14:56:23;;;;;;;;;;;;;;;;;;5030966;28;1740;-78
2022/07/20 14:58:49;;;;;;;;;;;;;;;;;;5025957;28;1444;-78
2022/07/20 15:01:16;;;;;;;;;;;;;;;;;;5009337;28;1546;-78
2022/07/20 15:03:42;;;;;;;;;;;;;;;;;;5023039;28;1614;-77
2022/07/20 15:06:08;;;;;;;;;;;;;;;;;;5030709;28;1558;-77
2022/07/20 15:08:36;;;;;;;;;;;;;;;;;;5021166;28;1633;-78
2022/07/20 15:11:02;;;;;;;;;;;;;;;;;;5029055;28;1296;-79
2022/07/20 15:13:28;;;;;;;;;;;;;;;;;;5025018;28;1977;-78
2022/07/20 15:15:54;;;;;;;;;;;;;;;;;;5003906;28;1657;-78
2022/07/20 15:18:21;;;;;;;;;;;;;;;;;;5021609;28;1412;-78
2022/07/20 15:20:47;;;;;;;;;;;;;;;;;;5023147;28;1372;-77
2022/07/20 15:23:13;;;;;;;;;;;;;;;;;;5030633;28;1218;-78
2022/07/20 15:25:41;;;;;;;;;;;;;;;;;;5031394;28;1464;-77
2022/07/20 15:28:07;;;;;;;;;;;;;;;;;;5021117;28;1484;-78
2022/07/20 15:30:33;;;;;;;;;;;;;;;;;;5031209;28;1147;-78
2022/07/20 15:32:59;;;;;;;;;;;;;;;;;;5030763;28;1926;-78
2022/07/20 15:35:26;;;;;;;;;;;;;;;;;;5022396;28;1047;-78
2022/07/20 15:37:52;;;;;;;;;;;;;;;;;;5014138;28;1424;-78
2022/07/20 15:40:18;;;;;;;;;;;;;;;;;;5030524;28;1159;-78
2022/07/20 15:42:46;;;;;;;;;;;;;;;;;;5029369;28;1390;-78
2022/07/20 15:45:12;;;;;;;;;;;;;;;;;;5031666;28;1659;-78
2022/07/20 15:47:38;;;;;;;;;;;;;;;;;;5022328;28;1613;-78
2022/07/20 15:50:05;;;;;;;;;;;;;;;;;;5030747;28;1666;-77
2022/07/20 15:52:31;;;;;;;;;;;;;;;;;;5029809;28;1967;-78
2022/07/20 15:54:58;;;;;;;;;;;;;;;;;;5024441;28;1408;-78
2022/07/20 15:57:26;;;;;;;;;;;;;;;;;;5022879;28;1418;-78
2022/07/20 15:59:54;;;;;;;;;;;;;;;;;;5028018;28;1524;-78
2022/07/20 16:02:21;;;;;;;;;;;;;;;;;;5024484;28;1441;-78
2022/07/20 16:04:47;;;;;;;;;;;;;;;;;;5027767;28;1361;-78
2022/07/20 16:07:14;;;;;;;;;;;;;;;;;;5032672;28;1328;-79
2022/07/20 16:09:40;;;;;;;;;;;;;;;;;;5015421;28;1416;-78
2022/07/20 16:12:07;;;;;;;;;;;;;;;;;;5030743;28;1949;-79
2022/07/20 16:14:33;;;;;;;;;;;;;;;;;;5031755;28;1469;-78
2022/07/20 16:17:01;;;;;;;;;;;;;;;;;;5026640;28;1954;-79
2022/07/20 16:19:27;;;;;;;;;;;;;;;;;;5003171;28;1567;-78
2022/07/20 16:21:53;;;;;;;;;;;;;;;;;;5010994;28;1256;-78
2022/07/20 16:24:19;;;;;;;;;;;;;;;;;;5032583;28;949;-78
2022/07/20 16:26:45;;;;;;;;;;;;;;;;;;5032077;28;1503;-78
2022/07/20 16:29:12;;;;;;;;;;;;;;;;;;5025958;28;1658;-79
2022/07/20 16:31:38;;;;;;;;;;;;;;;;;;5011102;28;2035;-80
2022/07/20 16:34:06;;;;;;;;;;;;;;;;;;5028622;28;1428;-79
2022/07/20 16:36:32;;;;;;;;;;;;;;;;;;5031389;28;1134;-80
2022/07/20 16:38:58;;;;;;;;;;;;;;;;;;5012512;28;1502;-78
2022/07/20 16:41:25;;;;;;;;;;;;;;;;;;5029182;28;1011;-79
2022/07/20 16:43:51;;;;;;;;;;;;;;;;;;5027911;28;1524;-78
2022/07/20 16:46:17;;;;;;;;;;;;;;;;;;5029667;28;1337;-79
2022/07/20 16:48:43;;;;;;;;;;;;;;;;;;5025986;28;1527;-78
2022/07/20 16:51:11;;;;;;;;;;;;;;;;;;5029021;28;1437;-78
2022/07/20 16:53:37;;;;;;;;;;;;;;;;;;5021099;28;2009;-78
2022/07/20 16:56:04;;;;;;;;;;;;;;;;;;5021817;28;1205;-79
2022/07/20 16:58:31;;;;;;;;;;;;;;;;;;5028931;28;1500;-78
2022/07/20 17:00:57;;;;;;;;;;;;;;;;;;5027167;28;1408;-78
2022/07/20 17:03:24;;;;;;;;;;;;;;;;;;5013009;28;1204;-79
2022/07/20 17:05:50;;;;;;;;;;;;;;;;;;5013208;28;1101;-79
2022/07/20 17:08:18;;;;;;;;;;;;;;;;;;5011745;28;1428;-78
2022/07/20 17:10:45;;;;;;;;;;;;;;;;;;5026268;28;1491;-79
2022/07/20 17:13:11;;;;;;;;;;;;;;;;;;5029756;28;1899;-78
2022/07/20 17:15:38;;;;;;;;;;;;;;;;;;5028640;28;1389;-78
2022/07/20 17:18:04;;;;;;;;;;;;;;;;;;5013812;28;1494;-78
2022/07/20 17:20:30;;;;;;;;;;;;;;;;;;5032881;28;1167;-78